createdAt,value
2022-08-26T00:01:06.310Z,13.63
2022-08-26T00:03:08.484Z,13.30
2022-08-26T00:05:11.098Z,13.03
2022-08-26T00:07:13.015Z,13.73
2022-08-26T00:09:16.004Z,12.50
2022-08-26T00:11:26.513Z,13.60
2022-08-26T00:13:29.316Z,14.53
2022-08-26T00:15:31.381Z,13.53
2022-08-26T00:17:33.295Z,15.87
2022-08-26T00:19:35.213Z,13.57
2022-08-26T00:21:37.600Z,13.50
2022-08-26T00:23:40.737Z,14.27
2022-08-26T00:25:42.960Z,14.93
2022-08-26T00:27:45.377Z,14.93
2022-08-26T00:29:47.288Z,13.57
2022-08-26T00:31:49.660Z,17.57
2022-08-26T00:33:51.570Z,17.43
2022-08-26T00:35:53.619Z,16.80
2022-08-26T00:37:56.199Z,15.70
2022-08-26T00:39:58.611Z,19.10
2022-08-26T00:42:02.948Z,15.60
2022-08-26T00:44:05.644Z,16.93
2022-08-26T00:46:12.355Z,16.10
2022-08-26T00:48:16.718Z,15.80
2022-08-26T00:50:22.986Z,16.10
2022-08-26T00:52:26.039Z,17.77
2022-08-26T00:54:30.551Z,17.17
2022-08-26T00:56:38.136Z,17.17
2022-08-26T00:58:43.127Z,18.70
2022-08-26T01:00:45.577Z,17.47
2022-08-26T01:02:48.954Z,15.67
2022-08-26T01:04:56.124Z,17.33
2022-08-26T01:06:58.194Z,16.20
2022-08-26T01:09:00.155Z,16.90
2022-08-26T01:11:02.633Z,16.10
2022-08-26T01:13:10.238Z,16.07
2022-08-26T01:15:18.042Z,15.73
2022-08-26T01:17:20.030Z,15.57
2022-08-26T01:19:26.502Z,15.20
2022-08-26T01:21:36.400Z,15.30
2022-08-26T01:23:45.446Z,15.60
2022-08-26T01:25:52.298Z,14.33
2022-08-26T01:27:57.830Z,14.30
2022-08-26T01:30:00.468Z,14.53
2022-08-26T01:32:03.200Z,15.80
2022-08-26T01:34:20.706Z,16.00
2022-08-26T01:36:22.981Z,13.60
2022-08-26T01:38:25.522Z,14.57
2022-08-26T01:40:37.249Z,12.73
2022-08-26T01:42:41.311Z,14.37
2022-08-26T01:44:51.060Z,13.30
2022-08-26T01:46:53.759Z,14.50
2022-08-26T01:48:57.581Z,13.43
2022-08-26T01:51:01.211Z,13.50
2022-08-26T01:53:06.923Z,14.57
2022-08-26T01:55:09.427Z,13.60
2022-08-26T01:57:11.346Z,14.60
2022-08-26T01:59:15.189Z,13.60
2022-08-26T02:01:20.191Z,14.17
2022-08-26T02:03:24.232Z,13.70
2022-08-26T02:05:26.224Z,14.87
2022-08-26T02:07:28.776Z,14.30
2022-08-26T02:09:30.857Z,14.97
2022-08-26T02:11:33.847Z,14.63
2022-08-26T02:13:42.397Z,13.60
2022-08-26T02:15:44.704Z,13.93
2022-08-26T02:17:47.686Z,14.13
2022-08-26T02:19:50.172Z,12.73
2022-08-26T02:21:53.168Z,14.00
2022-08-26T02:23:56.163Z,14.10
2022-08-26T02:26:16.300Z,15.60
2022-08-26T02:28:20.221Z,15.57
2022-08-26T02:30:28.079Z,13.93
2022-08-26T02:32:30.113Z,14.40
2022-08-26T02:34:32.953Z,15.40
2022-08-26T02:36:34.853Z,14.33
2022-08-26T02:38:37.029Z,13.60
2022-08-26T02:40:42.157Z,13.37
2022-08-26T02:42:44.112Z,14.00
2022-08-26T02:44:46.172Z,14.37
2022-08-26T02:46:48.349Z,14.10
2022-08-26T02:48:51.111Z,13.33
2022-08-26T02:50:53.114Z,14.10
2022-08-26T02:52:55.484Z,14.30
2022-08-26T02:54:57.517Z,13.67
2022-08-26T02:56:59.531Z,15.20
2022-08-26T02:59:02.097Z,14.10
2022-08-26T03:01:04.903Z,13.40
2022-08-26T03:03:08.205Z,14.33
2022-08-26T03:05:12.108Z,13.67
2022-08-26T03:07:14.336Z,13.90
2022-08-26T03:09:18.908Z,12.90
2022-08-26T03:11:20.988Z,14.07
2022-08-26T03:13:23.747Z,14.87
2022-08-26T03:15:26.283Z,12.83
2022-08-26T03:17:28.296Z,14.70
2022-08-26T03:19:32.107Z,14.97
2022-08-26T03:21:38.137Z,14.03
2022-08-26T03:23:40.784Z,13.60
2022-08-26T03:25:42.771Z,14.13
2022-08-26T03:27:45.081Z,13.07
2022-08-26T03:30:06.536Z,15.30
2022-08-26T03:32:09.358Z,15.53
2022-08-26T03:34:13.000Z,15.80
2022-08-26T03:36:15.384Z,13.77
2022-08-26T03:38:21.528Z,14.43
2022-08-26T03:40:23.748Z,14.70
2022-08-26T03:42:31.104Z,13.60
2022-08-26T03:44:33.056Z,13.20
2022-08-26T03:46:35.201Z,14.07
2022-08-26T03:48:38.013Z,14.43
2022-08-26T03:50:40.462Z,13.77
2022-08-26T03:52:44.008Z,14.23
2022-08-26T03:54:46.182Z,14.37
2022-08-26T03:56:49.225Z,14.80
2022-08-26T03:58:51.179Z,14.73
2022-08-26T04:00:55.714Z,15.07
2022-08-26T04:02:57.989Z,14.43
2022-08-26T04:05:00.206Z,13.47
2022-08-26T04:07:02.145Z,14.47
2022-08-26T04:09:07.982Z,14.20
2022-08-26T04:11:16.699Z,14.20
2022-08-26T04:13:18.893Z,14.97
2022-08-26T04:15:21.790Z,14.77
2022-08-26T04:17:25.826Z,14.73
2022-08-26T04:19:27.815Z,15.40
2022-08-26T04:21:29.808Z,14.50
2022-08-26T04:23:31.979Z,15.20
2022-08-26T04:25:49.349Z,14.60
2022-08-26T04:27:52.221Z,14.50
2022-08-26T04:29:55.417Z,14.33
2022-08-26T04:31:57.693Z,15.70
2022-08-26T04:33:59.721Z,14.97
2022-08-26T04:36:03.498Z,14.87
2022-08-26T04:38:06.085Z,15.50
2022-08-26T04:40:10.433Z,15.57
2022-08-26T04:42:13.439Z,15.60
2022-08-26T04:44:16.484Z,15.23
2022-08-26T04:46:25.463Z,16.53
2022-08-26T04:48:31.980Z,15.57
2022-08-26T04:50:34.181Z,16.43
2022-08-26T04:52:36.814Z,16.00
2022-08-26T04:54:38.870Z,15.60
2022-08-26T04:56:45.418Z,16.07
2022-08-26T04:58:48.541Z,15.50
2022-08-26T05:00:52.258Z,17.00
2022-08-26T05:02:55.700Z,15.53
2022-08-26T05:04:58.420Z,16.37
2022-08-26T05:07:02.586Z,15.77
2022-08-26T05:09:05.804Z,15.43
2022-08-26T05:11:09.449Z,15.80
2022-08-26T05:13:15.454Z,14.50
2022-08-26T05:15:17.902Z,16.00
2022-08-26T05:17:20.591Z,14.87
2022-08-26T05:19:23.705Z,15.27
2022-08-26T05:21:27.191Z,15.27
2022-08-26T05:23:31.438Z,14.80
2022-08-26T05:25:43.345Z,14.70
2022-08-26T05:27:45.438Z,15.77
2022-08-26T05:29:48.256Z,15.27
2022-08-26T05:31:56.555Z,14.87
2022-08-26T05:33:59.834Z,15.67
2022-08-26T05:36:09.301Z,16.03
2022-08-26T05:38:14.473Z,16.00
2022-08-26T05:40:16.750Z,15.43
2022-08-26T05:42:21.966Z,15.53
2022-08-26T05:44:24.487Z,14.40
2022-08-26T05:46:29.662Z,14.60
2022-08-26T05:48:31.688Z,15.70
2022-08-26T05:50:41.586Z,14.97
2022-08-26T05:52:44.918Z,15.90
2022-08-26T05:54:47.777Z,16.47
2022-08-26T05:56:51.472Z,15.70
2022-08-26T05:58:54.377Z,19.87
2022-08-26T06:01:10.366Z,17.00
2022-08-26T06:03:13.585Z,16.40
2022-08-26T06:05:15.895Z,15.77
2022-08-26T06:07:18.518Z,15.93
2022-08-26T06:09:20.603Z,16.10
2022-08-26T06:11:25.478Z,14.27
2022-08-26T06:13:31.922Z,15.50
2022-08-26T06:15:35.544Z,17.20
2022-08-26T06:17:37.592Z,17.43
2022-08-26T06:19:41.403Z,16.27
2022-08-26T06:21:46.807Z,17.40
2022-08-26T06:24:09.709Z,15.37
2022-08-26T06:26:12.776Z,15.53
2022-08-26T06:28:15.304Z,15.17
2022-08-26T06:30:17.494Z,15.17
2022-08-26T06:32:20.645Z,14.70
2022-08-26T06:34:23.249Z,14.20
2022-08-26T06:36:32.503Z,14.10
2022-08-26T06:38:35.192Z,14.23
2022-08-26T06:40:45.439Z,14.73
2022-08-26T06:42:47.440Z,17.80
2022-08-26T06:44:49.421Z,14.80
2022-08-26T06:46:51.560Z,16.50
2022-08-26T06:48:54.580Z,15.50
2022-08-26T06:51:07.586Z,13.97
2022-08-26T06:53:10.608Z,15.63
2022-08-26T06:55:12.662Z,17.10
2022-08-26T06:57:14.669Z,17.60
2022-08-26T06:59:18.830Z,16.10
2022-08-26T07:01:24.399Z,16.60
2022-08-26T07:03:26.408Z,15.33
2022-08-26T07:05:28.555Z,16.60
2022-08-26T07:07:31.651Z,16.07
2022-08-26T07:09:35.345Z,16.20
2022-08-26T07:11:39.560Z,16.53
2022-08-26T07:13:41.623Z,16.27
2022-08-26T07:15:45.190Z,15.47
2022-08-26T07:17:47.310Z,15.33
2022-08-26T07:19:49.498Z,15.60
2022-08-26T07:21:51.563Z,15.57
2022-08-26T07:23:58.706Z,15.77
2022-08-26T07:26:07.960Z,15.07
2022-08-26T07:28:09.966Z,14.47
2022-08-26T07:30:14.912Z,13.37
2022-08-26T07:32:19.625Z,14.20
2022-08-26T07:34:22.957Z,15.77
2022-08-26T07:36:24.951Z,15.13
2022-08-26T07:38:27.129Z,14.07
2022-08-26T07:40:29.369Z,14.03
2022-08-26T07:42:31.399Z,15.17
2022-08-26T07:44:33.405Z,14.03
2022-08-26T07:46:35.437Z,16.10
2022-08-26T07:48:37.721Z,14.70
2022-08-26T07:50:50.116Z,14.53
2022-08-26T07:52:52.678Z,15.77
2022-08-26T07:54:58.129Z,14.73
2022-08-26T07:57:00.260Z,12.80
2022-08-26T07:59:02.366Z,14.03
2022-08-26T08:01:05.628Z,13.43
2022-08-26T08:03:09.897Z,13.80
2022-08-26T08:05:14.612Z,13.40
2022-08-26T08:07:19.174Z,14.03
2022-08-26T08:09:22.417Z,14.90
2022-08-26T08:11:27.194Z,15.13
2022-08-26T08:13:29.352Z,15.30
2022-08-26T08:15:33.181Z,15.00
2022-08-26T08:17:37.503Z,12.90
2022-08-26T08:19:40.608Z,14.67
2022-08-26T08:21:43.792Z,14.70
2022-08-26T08:23:45.793Z,14.47
2022-08-26T08:25:49.189Z,13.30
2022-08-26T08:27:51.148Z,13.93
2022-08-26T08:29:55.347Z,16.43
2022-08-26T08:31:58.485Z,15.80
2022-08-26T08:34:01.981Z,15.03
2022-08-26T08:36:06.184Z,12.53
2022-08-26T08:38:11.296Z,14.70
2022-08-26T08:40:18.220Z,13.77
2022-08-26T08:42:42.884Z,14.57
2022-08-26T08:44:51.894Z,14.07
2022-08-26T08:46:58.064Z,13.43
2022-08-26T08:49:00.470Z,14.20
2022-08-26T08:51:18.024Z,13.73
2022-08-26T08:53:29.758Z,13.63
2022-08-26T08:55:42.001Z,14.37
2022-08-26T08:58:03.804Z,13.27
2022-08-26T09:00:12.421Z,13.00
2022-08-26T09:02:24.368Z,14.87
2022-08-26T09:04:29.357Z,13.23
2022-08-26T09:06:31.385Z,14.47
2022-08-26T09:08:35.835Z,15.70
2022-08-26T09:10:44.594Z,14.17
2022-08-26T09:12:47.764Z,13.87
2022-08-26T09:14:51.126Z,14.00
2022-08-26T09:17:01.247Z,13.30
2022-08-26T09:19:19.137Z,14.80
2022-08-26T09:21:25.876Z,13.90
2022-08-26T09:23:28.215Z,11.80
2022-08-26T09:25:30.663Z,13.00
2022-08-26T09:27:50.565Z,12.57
2022-08-26T09:29:52.802Z,12.37
2022-08-26T09:32:22.090Z,12.93
2022-08-26T09:34:28.044Z,12.40
2022-08-26T09:36:41.112Z,13.83
2022-08-26T09:38:44.232Z,13.10
2022-08-26T09:41:00.508Z,12.00
2022-08-26T09:43:22.192Z,11.40
2022-08-26T09:45:28.461Z,10.97
2022-08-26T09:47:47.192Z,11.63
2022-08-26T09:50:12.605Z,11.60
2022-08-26T09:52:16.706Z,10.10
2022-08-26T09:54:30.376Z,11.07
2022-08-26T09:56:36.987Z,11.17
2022-08-26T09:58:41.958Z,12.17
2022-08-26T10:00:55.562Z,12.80
2022-08-26T10:02:59.741Z,12.27
2022-08-26T10:05:09.029Z,10.77
2022-08-26T10:07:11.736Z,10.17
2022-08-26T10:09:17.503Z,11.57
2022-08-26T10:11:37.550Z,10.50
2022-08-26T10:13:44.636Z,11.20
2022-08-26T10:16:14.577Z,9.63
2022-08-26T10:18:30.718Z,10.70
2022-08-26T10:20:38.690Z,9.43
2022-08-26T10:22:47.267Z,9.43
2022-08-26T10:24:56.439Z,10.27
2022-08-26T10:27:03.246Z,9.67
2022-08-26T10:29:16.807Z,9.77
2022-08-26T10:31:28.240Z,9.57
2022-08-26T10:33:30.528Z,10.07
2022-08-26T10:35:36.343Z,10.30
2022-08-26T10:37:43.992Z,9.50
2022-08-26T10:39:49.162Z,9.57
2022-08-26T10:41:59.217Z,9.30
2022-08-26T10:44:02.254Z,10.23
2022-08-26T10:46:10.750Z,8.20
2022-08-26T10:48:19.299Z,9.00
2022-08-26T10:50:37.298Z,8.87
2022-08-26T10:53:01.648Z,10.30
2022-08-26T10:55:16.318Z,10.13
2022-08-26T10:57:40.250Z,9.90
2022-08-26T11:00:22.059Z,9.23
2022-08-26T11:02:47.055Z,8.87
2022-08-26T11:04:58.623Z,10.60
2022-08-26T11:07:32.004Z,9.97
2022-08-26T11:09:52.200Z,8.97
2022-08-26T11:11:54.382Z,10.30
2022-08-26T11:13:56.420Z,10.00
2022-08-26T11:15:59.508Z,10.10
2022-08-26T11:18:08.251Z,10.03
2022-08-26T11:20:23.899Z,9.97
2022-08-26T11:22:38.034Z,10.50
2022-08-26T11:24:52.915Z,10.60
2022-08-26T11:26:56.679Z,9.50
2022-08-26T11:28:58.942Z,9.00
2022-08-26T11:31:08.716Z,9.30
2022-08-26T11:33:11.810Z,9.30
2022-08-26T11:35:17.007Z,11.93
2022-08-26T11:39:54.828Z,10.50
2022-08-26T11:42:03.542Z,9.77
2022-08-26T11:44:09.274Z,10.40
2022-08-26T11:46:12.535Z,8.70
2022-08-26T11:48:26.491Z,9.20
2022-08-26T11:50:28.975Z,8.80
2022-08-26T11:52:32.359Z,9.30
2022-08-26T11:54:35.635Z,9.97
2022-08-26T11:56:40.032Z,10.33
2022-08-26T11:58:44.313Z,9.90
2022-08-26T12:00:46.378Z,9.77
2022-08-26T12:02:49.140Z,10.10
2022-08-26T12:04:52.200Z,11.07
2022-08-26T12:06:55.019Z,12.33
2022-08-26T12:09:00.066Z,11.60
2022-08-26T12:11:10.194Z,11.00
2022-08-26T12:13:26.550Z,11.73
2022-08-26T12:15:31.080Z,11.50
2022-08-26T12:17:33.358Z,13.60
2022-08-26T12:19:35.531Z,11.30
2022-08-26T12:21:37.746Z,11.83
2022-08-26T12:23:44.105Z,12.27
2022-08-26T12:25:46.907Z,11.77
2022-08-26T12:27:53.671Z,12.90
2022-08-26T12:30:12.273Z,12.27
2022-08-26T12:32:18.410Z,10.63
2022-08-26T12:34:20.679Z,11.23
2022-08-26T12:36:28.601Z,8.30
2022-08-26T12:38:32.289Z,7.90
2022-08-26T12:40:41.038Z,8.73
2022-08-26T12:42:43.295Z,8.30
2022-08-26T12:45:03.609Z,7.00
2022-08-26T12:47:12.603Z,7.40
2022-08-26T12:49:18.440Z,7.20
2022-08-26T12:51:26.027Z,6.77
2022-08-26T12:53:30.563Z,5.90
2022-08-26T12:55:32.683Z,4.80
2022-08-26T12:57:36.907Z,6.23
2022-08-26T12:59:39.449Z,6.10
2022-08-26T13:01:44.464Z,6.80
2022-08-26T13:03:46.745Z,6.23
2022-08-26T13:05:49.580Z,6.53
2022-08-26T13:08:12.123Z,6.70
2022-08-26T13:10:35.601Z,7.03
2022-08-26T13:12:38.274Z,5.93
2022-08-26T13:14:40.583Z,5.90
2022-08-26T13:16:43.539Z,7.23
2022-08-26T13:18:51.190Z,7.80
2022-08-26T13:20:53.774Z,8.90
2022-08-26T13:22:59.069Z,8.40
2022-08-26T13:25:01.680Z,8.40
2022-08-26T13:27:06.162Z,6.97
2022-08-26T13:29:10.498Z,7.33
2022-08-26T13:31:15.094Z,8.07
2022-08-26T13:33:21.444Z,8.00
2022-08-26T13:35:23.633Z,7.03
2022-08-26T13:37:35.078Z,7.20
2022-08-26T13:39:38.262Z,7.13
2022-08-26T13:41:40.476Z,6.47
2022-08-26T13:43:43.005Z,6.93
2022-08-26T13:45:45.190Z,6.73
2022-08-26T13:47:47.658Z,5.97
2022-08-26T13:49:50.405Z,5.77
2022-08-26T13:51:52.632Z,6.83
2022-08-26T13:53:54.987Z,6.77
2022-08-26T13:55:58.899Z,6.80
2022-08-26T13:58:01.118Z,5.63
2022-08-26T14:00:04.579Z,6.00
2022-08-26T14:02:11.275Z,7.30
2022-08-26T14:04:13.550Z,6.97
2022-08-26T14:06:16.489Z,6.60
2022-08-26T14:08:18.670Z,7.23
2022-08-26T14:10:20.965Z,6.67
2022-08-26T14:12:23.986Z,7.00
2022-08-26T14:14:26.167Z,7.07
2022-08-26T14:16:33.491Z,5.93
2022-08-26T14:18:41.847Z,5.87
2022-08-26T14:20:50.430Z,6.37
2022-08-26T14:23:12.659Z,5.90
2022-08-26T14:25:15.241Z,6.23
2022-08-26T14:27:17.557Z,6.30
2022-08-26T14:29:19.729Z,7.10
2022-08-26T14:31:23.914Z,6.83
2022-08-26T14:33:28.224Z,6.67
2022-08-26T14:35:31.187Z,6.67
2022-08-26T14:37:33.417Z,6.37
2022-08-26T14:39:35.912Z,7.40
2022-08-26T14:41:54.616Z,8.07
2022-08-26T14:44:09.300Z,7.90
2022-08-26T14:46:11.611Z,8.40
2022-08-26T14:48:14.160Z,8.80
2022-08-26T14:50:18.905Z,8.80
2022-08-26T14:52:21.503Z,9.00
2022-08-26T14:54:23.800Z,9.13
2022-08-26T14:56:26.187Z,8.80
2022-08-26T14:58:34.959Z,9.30
2022-08-26T15:00:38.277Z,9.77
2022-08-26T15:02:41.242Z,9.20
2022-08-26T15:04:43.649Z,9.03
2022-08-26T15:06:46.289Z,9.17
2022-08-26T15:08:48.392Z,9.57
2022-08-26T15:10:50.814Z,9.30
2022-08-26T15:12:53.028Z,9.60
2022-08-26T15:14:55.214Z,9.20
2022-08-26T15:16:57.765Z,8.47
2022-08-26T15:19:00.315Z,8.77
2022-08-26T15:21:04.017Z,10.40
2022-08-26T15:23:07.414Z,8.90
2022-08-26T15:25:10.310Z,9.37
2022-08-26T15:27:12.575Z,8.90
2022-08-26T15:29:14.833Z,8.80
2022-08-26T15:31:17.531Z,8.30
2022-08-26T15:33:19.765Z,7.67
2022-08-26T15:35:22.027Z,8.60
2022-08-26T15:37:24.202Z,8.53
2022-08-26T15:39:26.349Z,9.53
2022-08-26T15:41:29.506Z,8.80
2022-08-26T15:43:32.007Z,7.90
2022-08-26T15:45:34.203Z,9.23
2022-08-26T15:47:55.409Z,7.17
2022-08-26T15:49:58.561Z,8.13
2022-08-26T15:52:04.243Z,7.53
2022-08-26T15:54:08.466Z,8.17
2022-08-26T15:56:13.099Z,7.93
2022-08-26T15:58:15.932Z,8.40
2022-08-26T16:00:18.732Z,7.80
2022-08-26T16:02:21.546Z,8.20
2022-08-26T16:04:23.871Z,7.90
2022-08-26T16:06:29.055Z,8.50
2022-08-26T16:08:36.403Z,7.33
2022-08-26T16:10:41.492Z,7.80
2022-08-26T16:12:43.683Z,7.70
2022-08-26T16:14:45.865Z,7.87
2022-08-26T16:16:48.348Z,7.10
2022-08-26T16:18:50.543Z,8.43
2022-08-26T16:21:12.948Z,7.60
2022-08-26T16:23:16.290Z,7.50
2022-08-26T16:25:18.482Z,8.50
2022-08-26T16:27:20.814Z,8.50
2022-08-26T16:29:25.471Z,9.77
2022-08-26T16:31:27.737Z,8.10
2022-08-26T16:33:30.029Z,8.87
2022-08-26T16:35:32.198Z,9.03
2022-08-26T16:37:36.501Z,8.30
2022-08-26T16:39:44.904Z,8.30
2022-08-26T16:41:47.464Z,8.70
2022-08-26T16:43:49.895Z,9.60
2022-08-26T16:45:52.069Z,8.67
2022-08-26T16:47:55.268Z,8.30
2022-08-26T16:49:57.416Z,9.17
2022-08-26T16:51:59.615Z,9.27
2022-08-26T16:54:02.451Z,9.90
2022-08-26T16:56:04.823Z,9.07
2022-08-26T16:58:07.014Z,9.27
2022-08-26T17:00:14.295Z,7.80
2022-08-26T17:02:16.538Z,8.90
2022-08-26T17:04:19.833Z,8.77
2022-08-26T17:06:22.040Z,8.37
2022-08-26T17:08:28.834Z,9.90
2022-08-26T17:10:32.916Z,9.20
2022-08-26T17:12:36.301Z,8.10
2022-08-26T17:14:38.492Z,7.77
2022-08-26T17:16:41.414Z,8.50
2022-08-26T17:18:43.694Z,7.60
2022-08-26T17:20:46.008Z,8.53
2022-08-26T17:22:49.679Z,8.60
2022-08-26T17:24:51.915Z,8.17
2022-08-26T17:26:55.493Z,8.93
2022-08-26T17:28:58.654Z,8.10
2022-08-26T17:31:01.332Z,9.57
2022-08-26T17:33:10.971Z,8.60
2022-08-26T17:35:14.242Z,9.10
2022-08-26T17:37:16.843Z,8.97
2022-08-26T17:39:18.979Z,8.70
2022-08-26T17:41:21.143Z,9.47
2022-08-26T17:43:26.774Z,9.73
2022-08-26T17:45:28.968Z,10.13
2022-08-26T17:47:31.751Z,10.67
2022-08-26T17:49:35.525Z,9.40
2022-08-26T17:51:37.675Z,10.37
2022-08-26T17:53:41.298Z,9.27
2022-08-26T17:55:45.189Z,10.83
2022-08-26T17:57:53.107Z,9.33
2022-08-26T17:59:55.865Z,10.47
2022-08-26T18:01:58.986Z,10.43
2022-08-26T18:04:01.723Z,8.40
2022-08-26T18:06:08.946Z,9.30
2022-08-26T18:08:11.134Z,9.20
2022-08-26T18:10:16.532Z,9.40
2022-08-26T18:12:18.661Z,10.57
2022-08-26T18:14:21.761Z,9.70
2022-08-26T18:16:24.474Z,9.57
2022-08-26T18:18:26.661Z,9.93
2022-08-26T18:20:28.792Z,9.63
2022-08-26T18:22:30.927Z,10.20
2022-08-26T18:24:34.783Z,9.60
2022-08-26T18:26:39.278Z,9.90
2022-08-26T18:28:41.387Z,9.90
2022-08-26T18:30:44.149Z,10.60
2022-08-26T18:32:50.296Z,11.53
2022-08-26T18:34:52.576Z,10.67
2022-08-26T18:36:54.733Z,11.07
2022-08-26T18:38:57.529Z,11.70
2022-08-26T18:40:59.750Z,11.60
2022-08-26T18:43:02.507Z,12.30
2022-08-26T18:45:06.266Z,11.90
2022-08-26T18:47:08.410Z,12.30
2022-08-26T18:49:13.111Z,12.40
2022-08-26T18:51:29.613Z,13.30
2022-08-26T18:53:32.318Z,12.77
2022-08-26T18:55:36.672Z,12.77
2022-08-26T18:57:38.843Z,13.87
2022-08-26T18:59:41.196Z,12.80
2022-08-26T19:01:43.675Z,12.57
2022-08-26T19:03:46.902Z,12.13
2022-08-26T19:05:49.085Z,12.30
2022-08-26T19:07:51.217Z,13.10
2022-08-26T19:09:54.129Z,12.90
2022-08-26T19:14:04.408Z,13.60
2022-08-26T19:16:06.652Z,13.40
2022-08-26T19:18:09.814Z,12.57
2022-08-26T19:20:11.994Z,13.17
2022-08-26T19:22:14.220Z,12.93
2022-08-26T19:24:17.600Z,12.80
2022-08-26T19:26:19.846Z,13.57
2022-08-26T19:28:22.065Z,14.10
2022-08-26T19:30:24.440Z,15.53
2022-08-26T19:32:30.203Z,15.13
2022-08-26T19:34:32.367Z,14.97
2022-08-26T19:36:34.814Z,13.37
2022-08-26T19:38:37.122Z,14.33
2022-08-26T19:40:39.829Z,14.83
2022-08-26T19:42:41.995Z,14.83
2022-08-26T19:45:03.016Z,13.57
2022-08-26T19:47:07.271Z,13.20
2022-08-26T19:49:09.532Z,13.90
2022-08-26T19:51:13.655Z,15.00
2022-08-26T19:53:16.393Z,13.50
2022-08-26T19:55:19.702Z,14.47
2022-08-26T19:57:21.833Z,14.87
2022-08-26T19:59:24.367Z,15.90
2022-08-26T20:01:26.558Z,14.60
2022-08-26T20:03:28.960Z,13.70
2022-08-26T20:05:31.091Z,13.27
2022-08-26T20:07:33.595Z,15.47
2022-08-26T20:09:36.268Z,14.20
2022-08-26T20:11:38.400Z,15.00
2022-08-26T20:13:40.899Z,14.27
2022-08-26T20:15:43.182Z,14.20
2022-08-26T20:17:45.551Z,14.80
2022-08-26T20:20:26.887Z,15.00
2022-08-26T20:22:32.907Z,14.10
2022-08-26T20:24:35.636Z,15.47
2022-08-26T20:26:39.173Z,15.50
2022-08-26T20:28:41.353Z,15.30
2022-08-26T20:30:43.521Z,16.37
2022-08-26T20:32:45.799Z,14.87
2022-08-26T20:34:49.364Z,14.47
2022-08-26T20:36:52.309Z,15.60
2022-08-26T20:38:55.904Z,15.13
2022-08-26T20:40:58.081Z,15.30
2022-08-26T20:43:00.258Z,15.00
2022-08-26T20:45:03.304Z,15.37
2022-08-26T20:47:05.776Z,18.27
2022-08-26T20:49:08.329Z,16.03
2022-08-26T20:51:10.730Z,16.03
2022-08-26T20:53:13.396Z,16.57
2022-08-26T20:55:15.639Z,16.60
2022-08-26T20:57:17.976Z,15.10
2022-08-26T20:59:20.911Z,16.13
2022-08-26T21:01:30.646Z,15.30
2022-08-26T21:03:33.352Z,17.60
2022-08-26T21:05:35.754Z,16.87
2022-08-26T21:07:38.329Z,17.33
2022-08-26T21:09:40.592Z,16.13
2022-08-26T21:11:45.284Z,18.90
2022-08-26T21:16:09.675Z,17.63
2022-08-26T21:18:12.079Z,18.30
2022-08-26T21:20:14.878Z,16.33
2022-08-26T21:22:17.083Z,15.73
2022-08-26T21:24:19.417Z,16.93
2022-08-26T21:26:21.813Z,17.50
2022-08-26T21:28:23.946Z,17.40
2022-08-26T21:30:26.168Z,15.40
2022-08-26T21:32:28.735Z,15.63
2022-08-26T21:34:31.051Z,16.57
2022-08-26T21:36:33.186Z,17.13
2022-08-26T21:38:36.611Z,16.97
2022-08-26T21:40:38.808Z,16.70
2022-08-26T21:42:41.026Z,17.17
2022-08-26T21:44:44.846Z,16.53
2022-08-26T21:46:53.774Z,17.13
2022-08-26T21:49:02.542Z,18.23
2022-08-26T21:51:08.487Z,18.00
2022-08-26T21:53:13.532Z,16.43
2022-08-26T21:55:15.750Z,16.03
2022-08-26T21:57:18.416Z,16.27
2022-08-26T21:59:20.580Z,17.13
2022-08-26T22:01:24.405Z,16.70
2022-08-26T22:03:26.798Z,16.80
2022-08-26T22:05:28.994Z,18.30
2022-08-26T22:07:31.261Z,18.17
2022-08-26T22:09:33.433Z,16.77
2022-08-26T22:11:35.691Z,17.10
2022-08-26T22:13:39.345Z,17.10
2022-08-26T22:15:42.156Z,16.23
2022-08-26T22:17:44.317Z,16.70
2022-08-26T22:19:46.800Z,16.20
2022-08-26T22:21:50.758Z,16.43
2022-08-26T22:23:57.881Z,15.37
2022-08-26T22:26:00.680Z,15.63
2022-08-26T22:28:03.757Z,16.87
2022-08-26T22:30:06.860Z,16.03
2022-08-26T22:32:13.975Z,18.00
2022-08-26T22:34:17.447Z,17.77
2022-08-26T22:36:22.308Z,18.33
2022-08-26T22:38:24.827Z,17.77
2022-08-26T22:40:27.157Z,18.70
2022-08-26T22:42:29.581Z,17.33
2022-08-26T22:44:32.619Z,15.90
2022-08-26T22:46:36.796Z,17.00
2022-08-26T22:48:39.224Z,14.93
2022-08-26T22:50:42.716Z,15.00
2022-08-26T22:52:44.965Z,14.03
2022-08-26T22:54:47.609Z,15.53
2022-08-26T22:56:56.819Z,15.73
2022-08-26T22:59:07.985Z,15.83
2022-08-26T23:01:16.586Z,16.47
2022-08-26T23:03:28.334Z,17.53
2022-08-26T23:05:45.371Z,16.80
2022-08-26T23:07:56.949Z,16.67
2022-08-26T23:10:08.590Z,16.83
2022-08-26T23:12:11.207Z,17.03
2022-08-26T23:14:13.381Z,17.00
2022-08-26T23:16:15.496Z,16.30
2022-08-26T23:18:17.530Z,17.83
2022-08-26T23:20:19.770Z,17.07
2022-08-26T23:22:21.862Z,17.53
2022-08-26T23:24:24.016Z,16.37
2022-08-26T23:26:26.096Z,17.10
2022-08-26T23:28:28.174Z,18.50
2022-08-26T23:30:31.920Z,17.23
2022-08-26T23:32:34.287Z,18.50
2022-08-26T23:34:54.965Z,17.90
2022-08-26T23:36:57.913Z,17.43
2022-08-26T23:39:00.358Z,17.17
2022-08-26T23:41:02.343Z,17.27
2022-08-26T23:43:06.755Z,18.03
2022-08-26T23:45:10.512Z,17.40
2022-08-26T23:47:13.479Z,16.70
2022-08-26T23:49:15.593Z,16.90
2022-08-26T23:51:36.426Z,17.47
2022-08-26T23:53:39.033Z,17.83
2022-08-26T23:55:41.018Z,16.23
2022-08-26T23:57:43.029Z,17.70
2022-08-26T23:59:45.480Z,18.10
